Hickory Hills, Illinois
Current Conditions -  °F | °C
As of 1:53 PM on Monday 22 Dec 2014 (Local Time) from KMDW Reporting Station
Light Rain Light Rain  
Wind Chill: 32°   Ceiling: 1100
Heat Index: 39°   Visibility: 3mi
Dew Point: 35°   Wind: 10mph
Humidity: 86%   Direction: 110°ESE
Pressure: 29.74"   Gusts: NA
Location:  41.72°N, 87.83°W
Report Text: KMDW 221953Z 11009KT 3SM -RA BR BKN011 OVC036 04/02 A2974 RMK AO2 SLP079 P0001 T00390017
Loading
Personal Weather Stations






























Interactive Weather Map New forecast layout! Learn more

10-Day Weather Forecast

Advertisements
Track Severe Weather on mobile